首页
METAR-TAF:

METAR-TAF

机场 :

費耶特維爾, 北卡罗来纳州, 美国

纬度: 34-59-22N, 经度: 078-52-48W, 海拔: 57米

当前天气观测

该预报发布于13分钟前的10:53 UTC
风速6节,风向
温度 21°C
湿度 88%
气压 1017 hPa
能見度: 16.1公里
天空无云

METAR: KFAY 201053Z 19006KT 10SM CLR 21/19 A3003 RMK AO2 SLP163 T02060194

时间: 07:06 (11:06 UTC)

预报

该预报发布于5小时和41分钟前的05:25 UTC
预报有效从20日的 06点(UTC)到 21日的 06点(UTC)
风速6节,风向南转西南
能見度: 10公里
少量云层高于25000英尺
短暂存在
从 20日的 09点(UTC)到 20日的 12点(UTC)
能見度: 6.4公里
少量云层高于600英尺
轻雾
从 20日的 1200点(UTC)
风速8节,风向西南
能見度: 10公里
散云层高于600英尺
散云层高于13000英尺
从 20日的 1900点(UTC)
风速9节,风向西南
能見度: 10公里
散云层高于5000英尺
从 21日的 0100点(UTC)
风速7节,风向
能見度: 10公里
散云层高于4000英尺, 积雨云.
多云层高于11000英尺
附近有雷暴

TAF: KFAY 200525Z 2006/2106 20006KT P6SM FEW250 TEMPO 2009/2012 4SM BR FEW006 FM201200 22008KT P6SM SCT006 SCT130 FM201900 22009KT P6SM SCT050 FM210100 19007KT P6SM VCTS SCT040CB BKN110

超过4000个机场的气象观测和天气预报(METAR&TAF报告)。

可查询的气象台以黄色和红色小点在地图上表示。

将鼠标移到小点上方,可查看气象台名称。

然后点击查看天气观测和预报。

如需切换地图:点击带黑十字的绿色按钮放大地图;点击带横线的绿色按钮缩小地图;或者点击绿色箭头查看邻近地区的地图。


METAR-TAF: